100LL.CA
Aviation Fuel Pricing for Canadians
Please upgrade your browser - Tested with IE9, FireFox, Chrome, Safari

Fuel Airports Other Help
Prices Economy Info List METAR/TAF Kneeboard Help

Reference Airport: SYDNEY/J.A. DOUGLAS McCURDY, NS
N 46 09 41  W 060 02 53
Provinces to show:

CYQY SYDNEY/J.A. DOUGLAS McCURDY, NS
WEATHER
METARCYQY 230200Z 03009KT 1SM R06/P6000FT/U -SN OVC004 M01/M01 A2969 RMK NS8 SLP059
TAFTAF AMD CYQY 230215Z 2302/2312 03010KT 1SM -SN OVC004 TEMPO 2302/2304 P6SM NSW FEW004 OVC010 FM230400 03010KT P6SM BKN006 OVC015 TEMPO 2304/2309 SCT006 OVC015 PROB40 2304/2309 2SM -FZDZ BR OVC004 FM230900 32008KT 6SM BR OVC008 RMK NXT FCST BY 230600Z
OTHER SITES

FlightAware

FltPlan

Google Maps

SkyVector
FUEL
FBO 100LL
member
100LL
public
JETA MOGAS
Opr (2019-01-08)1.800
Canada Flight Supplement - CYQY
(opens in new tab/window)


Please Send Updates!

Desktop Version ]  [ Mobile Version ]  [ Disclaimer ]